createdAt,value
2023-02-22T00:00:48.874Z,10.15
2023-02-22T00:03:16.883Z,9.52
2023-02-22T00:05:53.638Z,9.70
2023-02-22T00:08:23.773Z,11.18
2023-02-22T00:10:53.371Z,11.23
2023-02-22T00:13:22.807Z,9.48
2023-02-22T00:15:49.795Z,9.52
2023-02-22T00:18:19.642Z,9.98
2023-02-22T00:20:46.482Z,8.82
2023-02-22T00:23:22.208Z,10.00
2023-02-22T00:25:50.627Z,8.43
2023-02-22T00:28:20.990Z,8.35
2023-02-22T00:30:48.300Z,9.10
2023-02-22T00:33:16.224Z,8.98
2023-02-22T00:35:46.025Z,9.43
2023-02-22T00:38:15.430Z,9.73
2023-02-22T00:40:42.280Z,9.05
2023-02-22T00:43:09.157Z,8.75
2023-02-22T00:45:37.443Z,8.82
2023-02-22T00:48:05.605Z,9.05
2023-02-22T00:50:33.444Z,9.13
2023-02-22T00:53:02.271Z,9.05
2023-02-22T00:55:31.736Z,9.52
2023-02-22T00:57:59.595Z,9.70
2023-02-22T01:00:29.670Z,9.30
2023-02-22T01:02:56.942Z,7.72
2023-02-22T01:05:27.526Z,9.25
2023-02-22T01:07:55.917Z,9.88
2023-02-22T01:10:24.956Z,7.97
2023-02-22T01:12:52.422Z,8.63
2023-02-22T01:15:24.191Z,8.18
2023-02-22T01:17:53.657Z,8.50
2023-02-22T01:20:22.831Z,7.95
2023-02-22T01:22:51.655Z,7.82
2023-02-22T01:25:21.496Z,7.53
2023-02-22T01:27:50.262Z,9.85
2023-02-22T01:30:21.830Z,8.48
2023-02-22T01:32:48.866Z,8.93
2023-02-22T01:35:19.197Z,9.30
2023-02-22T01:37:46.037Z,7.78
2023-02-22T01:40:25.797Z,9.95
2023-02-22T01:42:57.372Z,11.68
2023-02-22T01:45:39.147Z,9.50
2023-02-22T01:48:09.018Z,9.07
2023-02-22T01:50:52.818Z,9.23
2023-02-22T01:53:23.653Z,9.53
2023-02-22T01:55:51.873Z,9.90
2023-02-22T01:58:20.895Z,9.45
2023-02-22T02:00:47.894Z,10.27
2023-02-22T02:03:22.291Z,11.38
2023-02-22T02:08:37.743Z,10.60
2023-02-22T02:11:09.174Z,9.73
2023-02-22T02:13:36.959Z,9.70
2023-02-22T02:16:04.218Z,10.00
2023-02-22T02:18:32.636Z,10.45
2023-02-22T02:21:18.336Z,10.23
2023-02-22T02:24:03.246Z,10.80
2023-02-22T02:26:49.874Z,8.50
2023-02-22T02:29:16.612Z,9.82
2023-02-22T02:32:02.427Z,10.73
2023-02-22T02:34:38.172Z,9.52
2023-02-22T02:37:54.174Z,9.85
2023-02-22T02:40:23.801Z,11.13
2023-02-22T02:42:53.811Z,10.88
2023-02-22T02:45:35.061Z,10.82
2023-02-22T02:48:05.160Z,10.90
2023-02-22T02:50:37.634Z,10.25
2023-02-22T02:53:08.047Z,11.82
2023-02-22T02:55:36.875Z,11.88
2023-02-22T02:58:06.043Z,12.95
2023-02-22T03:00:39.516Z,12.50
2023-02-22T03:03:26.608Z,12.67
2023-02-22T03:06:10.254Z,15.02
2023-02-22T03:08:58.636Z,12.45
2023-02-22T03:11:32.260Z,14.02
2023-02-22T03:14:17.898Z,13.80
2023-02-22T03:16:46.776Z,13.45
2023-02-22T03:19:22.813Z,15.93
2023-02-22T03:22:02.960Z,12.85
2023-02-22T03:24:53.212Z,14.65
2023-02-22T03:27:28.153Z,14.45
2023-02-22T03:30:00.383Z,15.05
2023-02-22T03:32:33.471Z,17.40
2023-02-22T03:35:19.373Z,15.80
2023-02-22T03:37:50.239Z,15.80
2023-02-22T03:40:28.114Z,14.65
2023-02-22T03:43:14.538Z,16.38
2023-02-22T03:45:44.828Z,14.48
2023-02-22T03:48:31.837Z,16.23
2023-02-22T03:50:58.942Z,14.93
2023-02-22T03:53:25.954Z,18.27
2023-02-22T03:55:55.625Z,17.50
2023-02-22T03:58:24.349Z,16.77
2023-02-22T04:00:53.244Z,17.00
2023-02-22T04:03:21.082Z,16.80
2023-02-22T04:05:48.724Z,18.83
2023-02-22T04:08:16.151Z,17.67
2023-02-22T04:10:43.220Z,19.63
2023-02-22T04:13:10.710Z,19.20
2023-02-22T04:15:37.900Z,16.05
2023-02-22T04:18:05.738Z,18.60
2023-02-22T04:20:34.847Z,17.30
2023-02-22T04:23:01.800Z,16.08
2023-02-22T04:25:28.862Z,20.13
2023-02-22T04:27:55.834Z,17.95
2023-02-22T04:30:23.434Z,17.13
2023-02-22T04:32:50.358Z,17.63
2023-02-22T04:35:17.326Z,18.27
2023-02-22T04:37:44.228Z,15.52
2023-02-22T04:40:11.570Z,18.75
2023-02-22T04:42:39.260Z,16.88
2023-02-22T04:45:08.593Z,16.38
2023-02-22T04:47:38.523Z,15.95
2023-02-22T04:50:07.559Z,18.73
2023-02-22T04:52:34.462Z,17.02
2023-02-22T04:55:01.353Z,17.35
2023-02-22T04:57:28.342Z,17.42
2023-02-22T04:59:55.452Z,20.05
2023-02-22T05:02:22.634Z,16.83
2023-02-22T05:04:49.687Z,18.88
2023-02-22T05:07:17.689Z,17.85
2023-02-22T05:09:44.573Z,19.40
2023-02-22T05:12:11.465Z,18.30
2023-02-22T05:14:38.461Z,18.30
2023-02-22T05:17:05.425Z,18.48
2023-02-22T05:19:32.454Z,17.20
2023-02-22T05:21:59.333Z,20.38
2023-02-22T05:24:26.164Z,18.77
2023-02-22T05:26:53.292Z,19.15
2023-02-22T05:29:21.039Z,20.17
2023-02-22T05:31:47.949Z,18.85
2023-02-22T05:34:15.902Z,19.80
2023-02-22T05:36:42.913Z,20.63
2023-02-22T05:39:09.797Z,19.85
2023-02-22T05:41:36.706Z,19.83
2023-02-22T05:44:04.057Z,20.00
2023-02-22T05:46:30.934Z,20.42
2023-02-22T05:48:57.871Z,18.80
2023-02-22T05:51:24.749Z,19.63
2023-02-22T05:53:52.634Z,20.40
2023-02-22T05:56:24.369Z,18.73
2023-02-22T05:58:51.347Z,19.67
2023-02-22T06:01:18.751Z,19.00
2023-02-22T06:03:50.250Z,19.75
2023-02-22T06:06:19.216Z,20.05
2023-02-22T06:08:47.089Z,20.60
2023-02-22T06:11:14.285Z,19.33
2023-02-22T06:13:41.362Z,17.73
2023-02-22T06:16:08.403Z,18.33
2023-02-22T06:18:35.353Z,20.88
2023-02-22T06:21:02.265Z,18.90
2023-02-22T06:23:29.110Z,19.50
2023-02-22T06:25:55.946Z,18.58
2023-02-22T06:28:23.906Z,20.98
2023-02-22T06:30:50.797Z,18.42
2023-02-22T06:33:17.734Z,17.50
2023-02-22T06:35:45.267Z,19.13
2023-02-22T06:38:12.517Z,20.55
2023-02-22T06:40:39.361Z,19.35
2023-02-22T06:43:06.163Z,18.55
2023-02-22T06:45:33.129Z,19.45
2023-02-22T06:47:59.922Z,18.40
2023-02-22T06:50:30.406Z,19.15
2023-02-22T06:52:58.208Z,17.02
2023-02-22T06:55:30.534Z,18.30
2023-02-22T06:57:57.583Z,18.90
2023-02-22T07:00:26.435Z,19.38
2023-02-22T07:02:54.364Z,16.92
2023-02-22T07:05:22.736Z,21.10
2023-02-22T07:07:52.648Z,21.30
2023-02-22T07:10:27.460Z,19.23
2023-02-22T07:12:54.892Z,20.30
2023-02-22T07:15:24.454Z,17.92
2023-02-22T07:17:52.469Z,19.45
2023-02-22T07:20:20.848Z,18.98
2023-02-22T07:22:49.041Z,19.20
2023-02-22T07:25:16.428Z,19.63
2023-02-22T07:27:43.873Z,16.98
2023-02-22T07:30:26.295Z,18.60
2023-02-22T07:32:54.720Z,17.58
2023-02-22T07:35:27.604Z,17.90
2023-02-22T07:37:56.045Z,17.88
2023-02-22T07:40:24.938Z,18.92
2023-02-22T07:42:59.567Z,19.45
2023-02-22T07:45:34.493Z,23.65
2023-02-22T07:48:03.666Z,18.30
2023-02-22T07:50:33.067Z,20.75
2023-02-22T07:53:02.528Z,20.75
2023-02-22T07:55:30.973Z,19.52
2023-02-22T07:58:00.239Z,19.83
2023-02-22T08:00:30.227Z,22.08
2023-02-22T08:02:57.434Z,18.33
2023-02-22T08:05:26.182Z,18.83
2023-02-22T08:07:53.395Z,19.05
2023-02-22T08:10:23.299Z,20.35
2023-02-22T08:12:50.944Z,19.48
2023-02-22T08:15:24.379Z,20.88
2023-02-22T08:17:51.831Z,21.67
2023-02-22T08:20:19.473Z,19.08
2023-02-22T08:22:47.794Z,20.88
2023-02-22T08:25:17.545Z,20.27
2023-02-22T08:27:45.299Z,16.52
2023-02-22T08:30:21.240Z,20.13
2023-02-22T08:32:49.544Z,18.58
2023-02-22T08:35:21.953Z,18.10
2023-02-22T08:37:54.966Z,19.23
2023-02-22T08:40:27.907Z,17.88
2023-02-22T08:42:57.427Z,16.50
2023-02-22T08:45:24.362Z,14.70
2023-02-22T08:47:51.540Z,13.63
2023-02-22T08:50:30.169Z,16.08
2023-02-22T08:53:00.364Z,16.02
2023-02-22T08:55:31.400Z,17.48
2023-02-22T08:58:00.105Z,14.93
2023-02-22T09:00:29.514Z,14.68
2023-02-22T09:02:57.717Z,16.83
2023-02-22T09:05:24.712Z,15.82
2023-02-22T09:07:51.560Z,13.07
2023-02-22T09:10:24.848Z,15.50
2023-02-22T09:12:52.508Z,13.73
2023-02-22T09:15:19.622Z,14.15
2023-02-22T09:17:46.495Z,14.27
2023-02-22T09:20:13.902Z,15.50
2023-02-22T09:22:41.401Z,14.75
2023-02-22T09:25:16.638Z,15.57
2023-02-22T09:27:46.584Z,16.70
2023-02-22T09:30:19.964Z,14.05
2023-02-22T09:32:49.653Z,14.68
2023-02-22T09:35:16.654Z,15.25
2023-02-22T09:37:45.064Z,15.23
2023-02-22T09:40:24.975Z,14.73
2023-02-22T09:43:07.208Z,14.55
2023-02-22T09:46:19.411Z,15.43
2023-02-22T09:49:02.042Z,13.13
2023-02-22T09:51:45.535Z,14.60
2023-02-22T09:54:21.792Z,12.50
2023-02-22T09:56:51.477Z,13.15
2023-02-22T09:59:29.739Z,12.90
2023-02-22T10:02:14.338Z,12.30
2023-02-22T10:04:52.778Z,12.18
2023-02-22T10:07:34.709Z,13.55
2023-02-22T10:10:06.854Z,12.13
2023-02-22T10:13:16.269Z,13.38
2023-02-22T10:16:02.856Z,11.70
2023-02-22T10:18:57.345Z,12.38
2023-02-22T10:21:49.036Z,14.23
2023-02-22T10:24:39.738Z,15.13
2023-02-22T10:27:10.016Z,15.73
2023-02-22T10:29:42.319Z,13.05
2023-02-22T10:32:16.942Z,14.23
2023-02-22T10:34:51.503Z,13.55
2023-02-22T10:40:23.812Z,12.93
2023-02-22T10:42:50.889Z,13.93
2023-02-22T10:45:26.809Z,13.07
2023-02-22T10:47:59.122Z,14.75
2023-02-22T10:50:31.241Z,14.82
2023-02-22T10:52:58.054Z,14.30
2023-02-22T10:55:25.253Z,14.23
2023-02-22T10:58:02.121Z,14.63
2023-02-22T11:00:37.417Z,15.13
2023-02-22T11:03:20.818Z,17.45
2023-02-22T11:05:49.462Z,17.15
2023-02-22T11:08:24.066Z,17.75
2023-02-22T11:10:53.653Z,16.33
2023-02-22T11:13:27.706Z,18.23
2023-02-22T11:15:58.374Z,16.92
2023-02-22T11:18:29.796Z,15.18
2023-02-22T11:21:08.244Z,16.35
2023-02-22T11:23:37.198Z,19.42
2023-02-22T11:26:10.950Z,18.08
2023-02-22T11:28:49.182Z,16.40
2023-02-22T11:31:20.878Z,16.10
2023-02-22T11:36:41.080Z,14.43
2023-02-22T11:39:29.664Z,13.57
2023-02-22T11:41:57.133Z,14.82
2023-02-22T11:44:29.305Z,15.13
2023-02-22T11:47:01.564Z,16.20
2023-02-22T11:49:38.338Z,14.48
2023-02-22T11:52:34.736Z,15.07
2023-02-22T11:55:05.808Z,15.27
2023-02-22T11:57:39.719Z,14.32
2023-02-22T12:00:33.463Z,13.77
2023-02-22T12:03:34.712Z,14.23
2023-02-22T12:06:10.476Z,13.43
2023-02-22T12:08:41.146Z,15.15
2023-02-22T12:11:18.399Z,15.32
2023-02-22T12:14:13.480Z,15.30
2023-02-22T12:17:04.755Z,14.35
2023-02-22T12:19:43.286Z,13.98
2023-02-22T12:22:12.328Z,15.10
2023-02-22T12:24:48.916Z,15.73
2023-02-22T12:27:28.448Z,15.25
2023-02-22T12:30:13.173Z,14.30
2023-02-22T12:35:17.478Z,14.25
2023-02-22T12:38:24.228Z,14.10
2023-02-22T12:41:27.102Z,14.00
2023-02-22T12:44:24.860Z,14.15
2023-02-22T12:46:56.783Z,13.25
2023-02-22T12:49:29.509Z,12.75
2023-02-22T12:52:34.180Z,13.20
2023-02-22T12:55:11.655Z,14.20
2023-02-22T12:58:15.530Z,12.80
2023-02-22T13:00:48.532Z,13.57
2023-02-22T13:03:15.403Z,12.68
2023-02-22T13:05:43.290Z,12.77
2023-02-22T13:08:21.834Z,13.25
2023-02-22T13:11:37.135Z,12.25
2023-02-22T13:14:22.551Z,14.20
2023-02-22T13:17:24.023Z,12.32
2023-02-22T13:20:23.352Z,12.15
2023-02-22T13:22:59.378Z,13.20
2023-02-22T13:25:34.359Z,12.63
2023-02-22T13:28:13.341Z,11.45
2023-02-22T13:30:48.623Z,11.18
2023-02-22T13:33:36.026Z,11.77
2023-02-22T13:36:32.267Z,12.40
2023-02-22T13:39:07.713Z,10.93
2023-02-22T13:42:18.344Z,10.50
2023-02-22T13:44:57.437Z,10.82
2023-02-22T13:47:34.996Z,10.32
2023-02-22T13:50:28.383Z,10.32
2023-02-22T13:52:57.859Z,7.88
2023-02-22T13:55:31.506Z,9.45
2023-02-22T13:58:16.468Z,8.60
2023-02-22T14:00:58.468Z,9.43
2023-02-22T14:03:36.079Z,9.32
2023-02-22T14:06:05.164Z,11.00
2023-02-22T14:08:33.704Z,10.13
2023-02-22T14:11:32.458Z,10.30
2023-02-22T14:14:01.078Z,10.95
2023-02-22T14:16:29.784Z,10.60
2023-02-22T14:19:13.515Z,11.18
2023-02-22T14:22:03.993Z,10.38
2023-02-22T14:24:43.057Z,8.88
2023-02-22T14:27:11.108Z,9.88
2023-02-22T14:29:38.483Z,9.68
2023-02-22T14:32:10.655Z,9.43
2023-02-22T14:35:26.500Z,9.13
2023-02-22T14:37:59.019Z,8.00
2023-02-22T14:40:29.545Z,9.05
2023-02-22T14:43:05.014Z,8.95
2023-02-22T14:45:34.632Z,8.90
2023-02-22T14:48:24.981Z,8.95
2023-02-22T14:51:15.602Z,8.98
2023-02-22T14:53:52.939Z,9.90
2023-02-22T14:56:29.938Z,9.35
2023-02-22T14:59:16.804Z,10.18
2023-02-22T15:02:01.739Z,9.35
2023-02-22T15:04:32.969Z,9.10
2023-02-22T15:07:01.317Z,9.77
2023-02-22T15:09:33.772Z,10.30
2023-02-22T15:12:05.217Z,9.43
2023-02-22T15:14:37.993Z,9.52
2023-02-22T15:17:19.881Z,11.05
2023-02-22T15:19:50.717Z,10.00
2023-02-22T15:22:32.830Z,9.35
2023-02-22T15:25:05.762Z,9.80
2023-02-22T15:27:37.534Z,9.90
2023-02-22T15:30:17.960Z,9.90
2023-02-22T15:33:02.643Z,10.35
2023-02-22T15:35:33.421Z,8.68
2023-02-22T15:38:06.106Z,10.23
2023-02-22T15:40:33.844Z,11.18
2023-02-22T15:43:10.462Z,10.55
2023-02-22T15:45:42.891Z,10.13
2023-02-22T15:48:16.191Z,10.07
2023-02-22T15:51:12.372Z,11.18
2023-02-22T15:53:43.754Z,10.75
2023-02-22T15:56:36.844Z,11.35
2023-02-22T15:59:13.847Z,10.60
2023-02-22T16:01:43.489Z,9.75
2023-02-22T16:04:29.120Z,9.85
2023-02-22T16:07:07.155Z,10.88
2023-02-22T16:09:34.793Z,10.20
2023-02-22T16:12:28.568Z,10.68
2023-02-22T16:14:56.493Z,10.05
2023-02-22T16:17:37.221Z,9.40
2023-02-22T16:20:14.453Z,8.73
2023-02-22T16:22:49.148Z,8.73
2023-02-22T16:25:19.278Z,10.00
2023-02-22T16:27:50.162Z,9.98
2023-02-22T16:30:34.722Z,9.82
2023-02-22T16:33:05.594Z,9.80
2023-02-22T16:35:35.464Z,10.15
2023-02-22T16:38:08.086Z,9.48
2023-02-22T16:40:47.022Z,9.52
2023-02-22T16:43:26.712Z,10.10
2023-02-22T16:45:53.609Z,10.65
2023-02-22T16:48:26.441Z,10.02
2023-02-22T16:50:55.503Z,10.23
2023-02-22T16:53:24.705Z,9.77
2023-02-22T16:55:57.768Z,11.55
2023-02-22T16:58:29.378Z,10.35
2023-02-22T17:00:57.446Z,11.82
2023-02-22T17:03:25.509Z,11.15
2023-02-22T17:05:52.631Z,10.02
2023-02-22T17:08:19.698Z,11.27
2023-02-22T17:10:46.816Z,10.75
2023-02-22T17:13:23.068Z,10.15
2023-02-22T17:15:51.952Z,9.55
2023-02-22T17:18:23.478Z,9.68
2023-02-22T17:20:53.121Z,10.38
2023-02-22T17:23:21.344Z,11.32
2023-02-22T17:26:03.355Z,10.93
2023-02-22T17:28:31.508Z,10.00
2023-02-22T17:31:03.249Z,9.93
2023-02-22T17:33:33.404Z,11.55
2023-02-22T17:36:02.083Z,10.93
2023-02-22T17:38:30.387Z,10.90
2023-02-22T17:41:01.559Z,11.43
2023-02-22T17:43:29.088Z,10.07
2023-02-22T17:45:56.657Z,11.80
2023-02-22T17:48:24.425Z,12.10
2023-02-22T17:50:52.072Z,12.52
2023-02-22T17:53:22.652Z,11.27
2023-02-22T17:55:49.861Z,11.88
2023-02-22T17:58:17.474Z,10.27
2023-02-22T18:00:47.693Z,10.55
2023-02-22T18:03:21.131Z,11.77
2023-02-22T18:05:50.309Z,10.75
2023-02-22T18:08:17.264Z,11.00
2023-02-22T18:10:45.096Z,11.23
2023-02-22T18:13:18.807Z,10.70
2023-02-22T18:15:46.706Z,11.65
2023-02-22T18:18:14.878Z,12.13
2023-02-22T18:20:43.969Z,12.43
2023-02-22T18:23:17.032Z,12.45
2023-02-22T18:26:03.744Z,12.40
2023-02-22T18:28:35.797Z,11.52
2023-02-22T18:31:10.517Z,11.43
2023-02-22T18:33:37.442Z,11.27
2023-02-22T18:36:04.737Z,13.00
2023-02-22T18:38:31.791Z,12.82
2023-02-22T18:41:04.413Z,13.98
2023-02-22T18:43:32.083Z,13.15
2023-02-22T18:46:19.745Z,12.68
2023-02-22T18:48:48.159Z,12.93
2023-02-22T18:51:17.389Z,13.50
2023-02-22T18:53:47.199Z,13.80
2023-02-22T18:56:17.855Z,13.20
2023-02-22T18:58:45.115Z,13.50
2023-02-22T19:01:17.839Z,12.90
2023-02-22T19:03:47.266Z,12.45
2023-02-22T19:06:15.610Z,13.65
2023-02-22T19:08:44.180Z,13.48
2023-02-22T19:11:17.732Z,13.18
2023-02-22T19:13:49.053Z,13.82
2023-02-22T19:16:19.749Z,13.20
2023-02-22T19:18:48.657Z,13.23
2023-02-22T19:21:16.120Z,13.80
2023-02-22T19:23:46.017Z,13.85
2023-02-22T19:26:14.852Z,12.23
2023-02-22T19:28:41.722Z,12.20
2023-02-22T19:31:15.887Z,12.57
2023-02-22T19:33:43.523Z,12.23
2023-02-22T19:36:11.717Z,12.93
2023-02-22T19:38:39.120Z,12.65
2023-02-22T19:41:12.502Z,12.73
2023-02-22T19:43:39.537Z,13.85
2023-02-22T19:46:07.925Z,14.13
2023-02-22T19:48:35.360Z,13.38
2023-02-22T19:51:16.744Z,13.65
2023-02-22T19:53:44.466Z,12.40
2023-02-22T19:56:19.955Z,11.90
2023-02-22T19:58:49.703Z,14.23
2023-02-22T20:01:26.909Z,14.00
2023-02-22T20:03:59.946Z,13.23
2023-02-22T20:06:31.085Z,12.90
2023-02-22T20:08:58.426Z,12.55
2023-02-22T20:11:25.412Z,10.95
2023-02-22T20:13:52.432Z,13.60
2023-02-22T20:16:19.317Z,12.00
2023-02-22T20:18:47.698Z,12.25
2023-02-22T20:21:30.940Z,13.77
2023-02-22T20:24:03.174Z,14.40
2023-02-22T20:26:31.891Z,12.60
2023-02-22T20:28:59.236Z,13.48
2023-02-22T20:31:27.183Z,12.98
2023-02-22T20:33:55.656Z,13.27
2023-02-22T20:36:22.655Z,13.15
2023-02-22T20:38:57.180Z,12.68
2023-02-22T20:41:26.814Z,13.60
2023-02-22T20:43:55.287Z,14.10
2023-02-22T20:46:23.924Z,13.07
2023-02-22T20:48:57.957Z,12.00
2023-02-22T20:51:26.224Z,12.63
2023-02-22T20:53:53.350Z,12.60
2023-02-22T20:56:22.707Z,12.73
2023-02-22T20:58:50.242Z,12.45
2023-02-22T21:01:19.567Z,11.30
2023-02-22T21:03:46.993Z,12.32
2023-02-22T21:06:18.505Z,12.00
2023-02-22T21:08:50.182Z,12.98
2023-02-22T21:11:20.262Z,12.55
2023-02-22T21:13:47.754Z,13.07
2023-02-22T21:16:29.980Z,12.85
2023-02-22T21:19:00.154Z,12.30
2023-02-22T21:21:28.082Z,11.68
2023-02-22T21:23:57.577Z,11.10
2023-02-22T21:26:29.675Z,12.90
2023-02-22T21:29:00.641Z,12.55
2023-02-22T21:31:28.669Z,11.88
2023-02-22T21:33:57.424Z,13.40
2023-02-22T21:36:25.498Z,11.40
2023-02-22T21:38:56.046Z,12.25
2023-02-22T21:41:27.641Z,12.05
2023-02-22T21:43:57.152Z,12.40
2023-02-22T21:46:26.023Z,11.80
2023-02-22T21:48:53.087Z,11.75
2023-02-22T21:51:25.867Z,12.43
2023-02-22T21:53:54.605Z,11.38
2023-02-22T21:56:24.560Z,11.07
2023-02-22T21:59:00.632Z,11.32
2023-02-22T22:01:32.834Z,11.63
2023-02-22T22:04:00.439Z,12.70
2023-02-22T22:06:28.952Z,13.32
2023-02-22T22:08:56.503Z,12.90
2023-02-22T22:11:25.179Z,12.98
2023-02-22T22:13:57.713Z,12.05
2023-02-22T22:16:27.185Z,10.13
2023-02-22T22:18:55.374Z,12.55
2023-02-22T22:21:24.037Z,12.07
2023-02-22T22:23:54.398Z,11.00
2023-02-22T22:26:24.736Z,12.90
2023-02-22T22:28:57.664Z,12.05
2023-02-22T22:31:26.354Z,11.32
2023-02-22T22:33:54.923Z,11.90
2023-02-22T22:36:23.116Z,12.40
2023-02-22T22:38:50.392Z,11.45
2023-02-22T22:41:19.664Z,12.20
2023-02-22T22:43:47.297Z,12.30
2023-02-22T22:46:16.657Z,11.57
2023-02-22T22:48:47.340Z,10.85
2023-02-22T22:51:20.924Z,12.45
2023-02-22T22:53:49.882Z,12.15
2023-02-22T22:56:19.844Z,12.68
2023-02-22T22:58:52.428Z,11.55
2023-02-22T23:01:26.920Z,11.05
2023-02-22T23:04:01.813Z,12.02
2023-02-22T23:06:32.935Z,11.50
2023-02-22T23:09:11.326Z,11.02
2023-02-22T23:11:44.577Z,13.32
2023-02-22T23:14:21.588Z,13.27
2023-02-22T23:16:50.081Z,11.55
2023-02-22T23:19:19.368Z,12.10
2023-02-22T23:21:47.621Z,13.68
2023-02-22T23:24:16.781Z,13.75
2023-02-22T23:26:50.920Z,12.80
2023-02-22T23:29:19.373Z,12.02
2023-02-22T23:31:48.363Z,13.23
2023-02-22T23:34:21.200Z,14.15
2023-02-22T23:36:49.701Z,13.02
2023-02-22T23:39:20.664Z,14.23
2023-02-22T23:41:55.832Z,14.77
2023-02-22T23:44:22.948Z,15.02
2023-02-22T23:46:55.076Z,15.15
2023-02-22T23:49:23.702Z,16.95
2023-02-22T23:51:51.112Z,15.38
2023-02-22T23:54:20.542Z,16.10
2023-02-22T23:56:56.519Z,14.98
2023-02-22T23:59:25.795Z,16.50
